sensor_id;sensor_type;location;lat;lon;timestamp;P1;durP1;ratioP1;P2;durP2;ratioP2
45905;SDS011;31619;49.008;12.106;2022-12-29T00:02:23;8.27;;;7.57;;
45905;SDS011;31619;49.008;12.106;2022-12-29T00:04:49;8.65;;;7.72;;
45905;SDS011;31619;49.008;12.106;2022-12-29T00:07:15;7.57;;;6.88;;
45905;SDS011;31619;49.008;12.106;2022-12-29T00:09:41;8.20;;;7.22;;
45905;SDS011;31619;49.008;12.106;2022-12-29T00:12:07;8.75;;;7.82;;
45905;SDS011;31619;49.008;12.106;2022-12-29T00:14:32;9.10;;;7.82;;
45905;SDS011;31619;49.008;12.106;2022-12-29T00:17:17;8.63;;;7.65;;
45905;SDS011;31619;49.008;12.106;2022-12-29T00:19:42;8.57;;;7.32;;
45905;SDS011;31619;49.008;12.106;2022-12-29T00:22:26;8.20;;;7.50;;
45905;SDS011;31619;49.008;12.106;2022-12-29T00:25:11;8.90;;;8.00;;
45905;SDS011;31619;49.008;12.106;2022-12-29T00:27:55;7.40;;;6.80;;
45905;SDS011;31619;49.008;12.106;2022-12-29T00:30:40;8.45;;;7.55;;
45905;SDS011;31619;49.008;12.106;2022-12-29T00:33:32;8.25;;;7.43;;
45905;SDS011;31619;49.008;12.106;2022-12-29T00:36:18;9.52;;;8.45;;
45905;SDS011;31619;49.008;12.106;2022-12-29T00:38:49;7.93;;;7.22;;
45905;SDS011;31619;49.008;12.106;2022-12-29T00:41:36;8.50;;;7.70;;
45905;SDS011;31619;49.008;12.106;2022-12-29T00:44:20;9.57;;;7.60;;
45905;SDS011;31619;49.008;12.106;2022-12-29T00:46:45;7.95;;;7.13;;
45905;SDS011;31619;49.008;12.106;2022-12-29T00:49:11;8.38;;;7.65;;
45905;SDS011;31619;49.008;12.106;2022-12-29T00:52:01;7.10;;;6.45;;
45905;SDS011;31619;49.008;12.106;2022-12-29T00:54:32;8.50;;;7.75;;
45905;SDS011;31619;49.008;12.106;2022-12-29T00:57:00;8.52;;;7.53;;
45905;SDS011;31619;49.008;12.106;2022-12-29T00:59:25;9.43;;;8.45;;
45905;SDS011;31619;49.008;12.106;2022-12-29T01:01:51;7.97;;;7.18;;
45905;SDS011;31619;49.008;12.106;2022-12-29T01:04:18;8.98;;;7.90;;
45905;SDS011;31619;49.008;12.106;2022-12-29T01:06:45;8.43;;;7.60;;
45905;SDS011;31619;49.008;12.106;2022-12-29T01:09:11;8.30;;;7.50;;
45905;SDS011;31619;49.008;12.106;2022-12-29T01:11:56;7.90;;;7.13;;
45905;SDS011;31619;49.008;12.106;2022-12-29T01:14:21;7.90;;;7.20;;
45905;SDS011;31619;49.008;12.106;2022-12-29T01:16:48;8.43;;;7.20;;
45905;SDS011;31619;49.008;12.106;2022-12-29T01:19:14;7.63;;;6.95;;
45905;SDS011;31619;49.008;12.106;2022-12-29T01:21:41;8.10;;;7.35;;
45905;SDS011;31619;49.008;12.106;2022-12-29T01:24:06;7.47;;;6.78;;
45905;SDS011;31619;49.008;12.106;2022-12-29T01:26:32;7.70;;;6.97;;
45905;SDS011;31619;49.008;12.106;2022-12-29T01:28:58;7.13;;;6.43;;
45905;SDS011;31619;49.008;12.106;2022-12-29T01:31:24;7.75;;;6.93;;
45905;SDS011;31619;49.008;12.106;2022-12-29T01:33:49;10.35;;;7.35;;
45905;SDS011;31619;49.008;12.106;2022-12-29T01:36:15;8.13;;;7.13;;
45905;SDS011;31619;49.008;12.106;2022-12-29T01:38:42;7.28;;;6.68;;
45905;SDS011;31619;49.008;12.106;2022-12-29T01:41:08;7.03;;;6.32;;
45905;SDS011;31619;49.008;12.106;2022-12-29T01:43:43;7.43;;;6.72;;
45905;SDS011;31619;49.008;12.106;2022-12-29T01:46:33;7.30;;;6.60;;
45905;SDS011;31619;49.008;12.106;2022-12-29T01:51:28;7.22;;;6.32;;
45905;SDS011;31619;49.008;12.106;2022-12-29T01:53:57;6.68;;;6.07;;
45905;SDS011;31619;49.008;12.106;2022-12-29T01:56:25;7.45;;;6.68;;
45905;SDS011;31619;49.008;12.106;2022-12-29T01:58:54;6.85;;;6.20;;
45905;SDS011;31619;49.008;12.106;2022-12-29T02:01:23;7.57;;;6.78;;
45905;SDS011;31619;49.008;12.106;2022-12-29T02:03:48;8.40;;;6.80;;
45905;SDS011;31619;49.008;12.106;2022-12-29T02:06:22;7.95;;;6.97;;
45905;SDS011;31619;49.008;12.106;2022-12-29T02:08:55;8.13;;;7.03;;
45905;SDS011;31619;49.008;12.106;2022-12-29T02:11:21;7.18;;;6.47;;
45905;SDS011;31619;49.008;12.106;2022-12-29T02:13:50;7.68;;;6.90;;
45905;SDS011;31619;49.008;12.106;2022-12-29T02:16:19;6.75;;;6.07;;
45905;SDS011;31619;49.008;12.106;2022-12-29T02:18:59;6.85;;;6.25;;
45905;SDS011;31619;49.008;12.106;2022-12-29T02:33:00;6.18;;;5.57;;
45905;SDS011;31619;49.008;12.106;2022-12-29T02:35:37;6.40;;;5.88;;
45905;SDS011;31619;49.008;12.106;2022-12-29T02:38:19;7.45;;;6.65;;
45905;SDS011;31619;49.008;12.106;2022-12-29T02:40:47;6.68;;;5.95;;
45905;SDS011;31619;49.008;12.106;2022-12-29T02:43:23;6.65;;;6.05;;
45905;SDS011;31619;49.008;12.106;2022-12-29T02:51:08;6.57;;;6.05;;
45905;SDS011;31619;49.008;12.106;2022-12-29T02:53:40;6.78;;;6.18;;
45905;SDS011;31619;49.008;12.106;2022-12-29T02:56:24;6.88;;;6.20;;
45905;SDS011;31619;49.008;12.106;2022-12-29T02:58:50;5.60;;;5.10;;
45905;SDS011;31619;49.008;12.106;2022-12-29T03:01:29;6.90;;;6.20;;
45905;SDS011;31619;49.008;12.106;2022-12-29T03:09:20;6.22;;;5.63;;
45905;SDS011;31619;49.008;12.106;2022-12-29T03:15:39;6.30;;;5.70;;
45905;SDS011;31619;49.008;12.106;2022-12-29T03:21:37;6.50;;;5.90;;
45905;SDS011;31619;49.008;12.106;2022-12-29T03:24:26;7.25;;;5.50;;
45905;SDS011;31619;49.008;12.106;2022-12-29T03:26:55;6.00;;;5.50;;
45905;SDS011;31619;49.008;12.106;2022-12-29T03:29:23;6.68;;;6.07;;
45905;SDS011;31619;49.008;12.106;2022-12-29T03:31:49;6.15;;;5.55;;
45905;SDS011;31619;49.008;12.106;2022-12-29T03:34:19;5.85;;;5.35;;
45905;SDS011;31619;49.008;12.106;2022-12-29T03:36:58;6.18;;;5.68;;
45905;SDS011;31619;49.008;12.106;2022-12-29T03:39:29;8.65;;;6.30;;
45905;SDS011;31619;49.008;12.106;2022-12-29T03:41:58;5.88;;;5.38;;
45905;SDS011;31619;49.008;12.106;2022-12-29T03:44:38;5.97;;;5.47;;
45905;SDS011;31619;49.008;12.106;2022-12-29T03:47:06;6.07;;;5.47;;
45905;SDS011;31619;49.008;12.106;2022-12-29T03:49:32;6.18;;;5.57;;
45905;SDS011;31619;49.008;12.106;2022-12-29T03:51:58;6.57;;;5.90;;
45905;SDS011;31619;49.008;12.106;2022-12-29T03:54:24;6.50;;;5.88;;
45905;SDS011;31619;49.008;12.106;2022-12-29T03:56:50;7.80;;;5.20;;
45905;SDS011;31619;49.008;12.106;2022-12-29T03:59:15;6.47;;;5.80;;
45905;SDS011;31619;49.008;12.106;2022-12-29T04:01:41;6.28;;;5.68;;
45905;SDS011;31619;49.008;12.106;2022-12-29T04:04:06;5.40;;;5.00;;
45905;SDS011;31619;49.008;12.106;2022-12-29T04:06:32;5.68;;;5.15;;
45905;SDS011;31619;49.008;12.106;2022-12-29T04:08:57;5.93;;;5.43;;
45905;SDS011;31619;49.008;12.106;2022-12-29T04:11:23;6.05;;;5.45;;
45905;SDS011;31619;49.008;12.106;2022-12-29T04:13:49;5.88;;;5.38;;
45905;SDS011;31619;49.008;12.106;2022-12-29T04:16:14;5.50;;;5.00;;
45905;SDS011;31619;49.008;12.106;2022-12-29T04:18:40;5.85;;;5.25;;
45905;SDS011;31619;49.008;12.106;2022-12-29T04:21:06;6.00;;;5.50;;
45905;SDS011;31619;49.008;12.106;2022-12-29T04:23:33;6.97;;;5.90;;
45905;SDS011;31619;49.008;12.106;2022-12-29T04:26:00;5.60;;;5.10;;
45905;SDS011;31619;49.008;12.106;2022-12-29T04:28:26;5.80;;;5.25;;
45905;SDS011;31619;49.008;12.106;2022-12-29T04:30:52;5.53;;;5.05;;
45905;SDS011;31619;49.008;12.106;2022-12-29T04:33:18;6.10;;;5.03;;
45905;SDS011;31619;49.008;12.106;2022-12-29T04:35:45;6.13;;;5.35;;
45905;SDS011;31619;49.008;12.106;2022-12-29T04:38:11;5.65;;;5.15;;
45905;SDS011;31619;49.008;12.106;2022-12-29T04:40:38;5.85;;;5.18;;
45905;SDS011;31619;49.008;12.106;2022-12-29T04:43:05;6.30;;;4.80;;
45905;SDS011;31619;49.008;12.106;2022-12-29T04:45:31;5.70;;;5.20;;
45905;SDS011;31619;49.008;12.106;2022-12-29T04:47:56;5.10;;;4.70;;
45905;SDS011;31619;49.008;12.106;2022-12-29T04:50:22;5.57;;;5.07;;
45905;SDS011;31619;49.008;12.106;2022-12-29T04:52:47;5.85;;;5.35;;
45905;SDS011;31619;49.008;12.106;2022-12-29T04:55:13;6.22;;;5.63;;
45905;SDS011;31619;49.008;12.106;2022-12-29T04:57:39;5.28;;;4.65;;
45905;SDS011;31619;49.008;12.106;2022-12-29T05:00:05;5.60;;;5.10;;
45905;SDS011;31619;49.008;12.106;2022-12-29T05:02:33;6.18;;;5.57;;
45905;SDS011;31619;49.008;12.106;2022-12-29T05:04:59;5.72;;;5.32;;
45905;SDS011;31619;49.008;12.106;2022-12-29T05:07:24;5.13;;;4.70;;
45905;SDS011;31619;49.008;12.106;2022-12-29T05:09:50;5.43;;;4.93;;
45905;SDS011;31619;49.008;12.106;2022-12-29T05:12:16;5.75;;;5.18;;
45905;SDS011;31619;49.008;12.106;2022-12-29T05:14:41;5.50;;;4.60;;
45905;SDS011;31619;49.008;12.106;2022-12-29T05:17:07;5.47;;;4.90;;
45905;SDS011;31619;49.008;12.106;2022-12-29T05:19:32;5.90;;;5.28;;
45905;SDS011;31619;49.008;12.106;2022-12-29T05:21:58;5.40;;;5.00;;
45905;SDS011;31619;49.008;12.106;2022-12-29T05:24:24;6.10;;;5.47;;
45905;SDS011;31619;49.008;12.106;2022-12-29T05:26:49;6.03;;;5.53;;
45905;SDS011;31619;49.008;12.106;2022-12-29T05:29:15;6.03;;;5.50;;
45905;SDS011;31619;49.008;12.106;2022-12-29T05:31:40;6.97;;;5.93;;
45905;SDS011;31619;49.008;12.106;2022-12-29T05:34:06;5.60;;;4.97;;
45905;SDS011;31619;49.008;12.106;2022-12-29T05:36:32;6.22;;;5.10;;
45905;SDS011;31619;49.008;12.106;2022-12-29T05:38:57;5.68;;;5.18;;
45905;SDS011;31619;49.008;12.106;2022-12-29T05:41:23;5.68;;;5.07;;
45905;SDS011;31619;49.008;12.106;2022-12-29T05:43:48;5.50;;;5.00;;
45905;SDS011;31619;49.008;12.106;2022-12-29T05:46:14;6.40;;;5.47;;
45905;SDS011;31619;49.008;12.106;2022-12-29T05:48:40;6.35;;;5.25;;
45905;SDS011;31619;49.008;12.106;2022-12-29T05:51:05;5.50;;;4.93;;
45905;SDS011;31619;49.008;12.106;2022-12-29T05:53:31;6.13;;;5.63;;
45905;SDS011;31619;49.008;12.106;2022-12-29T05:55:57;5.65;;;5.10;;
45905;SDS011;31619;49.008;12.106;2022-12-29T05:58:23;6.53;;;5.15;;
45905;SDS011;31619;49.008;12.106;2022-12-29T06:00:48;5.85;;;5.35;;
45905;SDS011;31619;49.008;12.106;2022-12-29T06:03:14;4.95;;;4.55;;
45905;SDS011;31619;49.008;12.106;2022-12-29T06:05:39;5.43;;;4.93;;
45905;SDS011;31619;49.008;12.106;2022-12-29T06:08:05;5.55;;;4.97;;
45905;SDS011;31619;49.008;12.106;2022-12-29T06:10:31;5.20;;;4.70;;
45905;SDS011;31619;49.008;12.106;2022-12-29T06:12:56;6.25;;;5.65;;
45905;SDS011;31619;49.008;12.106;2022-12-29T06:15:22;5.47;;;5.05;;
45905;SDS011;31619;49.008;12.106;2022-12-29T06:17:47;5.15;;;4.72;;
45905;SDS011;31619;49.008;12.106;2022-12-29T06:20:13;5.88;;;5.25;;
45905;SDS011;31619;49.008;12.106;2022-12-29T06:22:38;5.35;;;4.90;;
45905;SDS011;31619;49.008;12.106;2022-12-29T06:25:04;5.20;;;4.80;;
45905;SDS011;31619;49.008;12.106;2022-12-29T06:27:30;5.13;;;4.72;;
45905;SDS011;31619;49.008;12.106;2022-12-29T06:29:56;4.60;;;4.20;;
45905;SDS011;31619;49.008;12.106;2022-12-29T06:32:22;5.18;;;4.75;;
45905;SDS011;31619;49.008;12.106;2022-12-29T06:34:48;5.25;;;4.85;;
45905;SDS011;31619;49.008;12.106;2022-12-29T06:37:14;5.28;;;4.78;;
45905;SDS011;31619;49.008;12.106;2022-12-29T06:39:39;5.90;;;5.30;;
45905;SDS011;31619;49.008;12.106;2022-12-29T06:42:05;5.45;;;5.05;;
45905;SDS011;31619;49.008;12.106;2022-12-29T06:44:31;7.93;;;5.28;;
45905;SDS011;31619;49.008;12.106;2022-12-29T06:46:56;5.97;;;5.43;;
45905;SDS011;31619;49.008;12.106;2022-12-29T06:49:22;6.05;;;5.10;;
45905;SDS011;31619;49.008;12.106;2022-12-29T06:51:48;5.47;;;4.97;;
45905;SDS011;31619;49.008;12.106;2022-12-29T06:54:14;5.97;;;5.35;;
45905;SDS011;31619;49.008;12.106;2022-12-29T06:56:39;5.93;;;5.35;;
45905;SDS011;31619;49.008;12.106;2022-12-29T06:59:05;5.97;;;5.40;;
45905;SDS011;31619;49.008;12.106;2022-12-29T07:01:31;5.18;;;4.72;;
45905;SDS011;31619;49.008;12.106;2022-12-29T07:03:57;5.22;;;4.82;;
45905;SDS011;31619;49.008;12.106;2022-12-29T07:06:22;5.45;;;4.95;;
45905;SDS011;31619;49.008;12.106;2022-12-29T07:08:48;5.53;;;5.13;;
45905;SDS011;31619;49.008;12.106;2022-12-29T07:11:14;6.25;;;5.32;;
45905;SDS011;31619;49.008;12.106;2022-12-29T07:13:39;5.75;;;5.25;;
45905;SDS011;31619;49.008;12.106;2022-12-29T07:16:06;5.78;;;5.00;;
45905;SDS011;31619;49.008;12.106;2022-12-29T07:18:32;6.25;;;5.72;;
45905;SDS011;31619;49.008;12.106;2022-12-29T07:20:58;6.03;;;5.43;;
45905;SDS011;31619;49.008;12.106;2022-12-29T07:23:24;6.93;;;6.20;;
45905;SDS011;31619;49.008;12.106;2022-12-29T07:25:49;5.88;;;5.38;;
45905;SDS011;31619;49.008;12.106;2022-12-29T07:28:15;6.57;;;6.00;;
45905;SDS011;31619;49.008;12.106;2022-12-29T07:30:40;6.65;;;5.93;;
45905;SDS011;31619;49.008;12.106;2022-12-29T07:33:06;7.45;;;6.25;;
45905;SDS011;31619;49.008;12.106;2022-12-29T07:35:33;8.10;;;5.97;;
45905;SDS011;31619;49.008;12.106;2022-12-29T07:37:59;6.22;;;5.60;;
45905;SDS011;31619;49.008;12.106;2022-12-29T07:40:24;6.88;;;5.95;;
45905;SDS011;31619;49.008;12.106;2022-12-29T07:42:50;5.75;;;5.28;;
45905;SDS011;31619;49.008;12.106;2022-12-29T07:45:15;6.75;;;6.15;;
45905;SDS011;31619;49.008;12.106;2022-12-29T07:47:41;6.70;;;6.10;;
45905;SDS011;31619;49.008;12.106;2022-12-29T07:50:07;6.65;;;6.03;;
45905;SDS011;31619;49.008;12.106;2022-12-29T07:52:32;7.13;;;5.45;;
45905;SDS011;31619;49.008;12.106;2022-12-29T07:54:58;5.70;;;5.20;;
45905;SDS011;31619;49.008;12.106;2022-12-29T07:57:23;6.15;;;5.65;;
45905;SDS011;31619;49.008;12.106;2022-12-29T07:59:49;7.68;;;5.82;;
45905;SDS011;31619;49.008;12.106;2022-12-29T08:02:14;5.40;;;4.90;;
45905;SDS011;31619;49.008;12.106;2022-12-29T08:04:40;4.38;;;3.97;;
45905;SDS011;31619;49.008;12.106;2022-12-29T08:07:06;5.38;;;4.97;;
45905;SDS011;31619;49.008;12.106;2022-12-29T08:09:31;5.47;;;4.97;;
45905;SDS011;31619;49.008;12.106;2022-12-29T08:11:57;5.50;;;5.10;;
45905;SDS011;31619;49.008;12.106;2022-12-29T08:14:22;5.55;;;5.00;;
45905;SDS011;31619;49.008;12.106;2022-12-29T08:16:48;6.55;;;5.40;;
45905;SDS011;31619;49.008;12.106;2022-12-29T08:19:14;6.50;;;5.90;;
45905;SDS011;31619;49.008;12.106;2022-12-29T08:21:40;4.78;;;4.35;;
45905;SDS011;31619;49.008;12.106;2022-12-29T08:24:06;4.68;;;4.28;;
45905;SDS011;31619;49.008;12.106;2022-12-29T08:26:32;5.13;;;4.63;;
45905;SDS011;31619;49.008;12.106;2022-12-29T08:28:58;5.25;;;4.85;;
45905;SDS011;31619;49.008;12.106;2022-12-29T08:31:23;5.72;;;5.22;;
45905;SDS011;31619;49.008;12.106;2022-12-29T08:33:49;5.30;;;4.80;;
45905;SDS011;31619;49.008;12.106;2022-12-29T08:36:15;4.85;;;4.45;;
45905;SDS011;31619;49.008;12.106;2022-12-29T08:38:41;5.22;;;4.72;;
45905;SDS011;31619;49.008;12.106;2022-12-29T08:41:06;4.82;;;4.43;;
45905;SDS011;31619;49.008;12.106;2022-12-29T08:43:32;5.05;;;4.28;;
45905;SDS011;31619;49.008;12.106;2022-12-29T08:45:58;4.72;;;4.10;;
45905;SDS011;31619;49.008;12.106;2022-12-29T08:48:25;5.28;;;4.78;;
45905;SDS011;31619;49.008;12.106;2022-12-29T08:50:51;5.93;;;4.47;;
45905;SDS011;31619;49.008;12.106;2022-12-29T08:53:17;4.30;;;3.90;;
45905;SDS011;31619;49.008;12.106;2022-12-29T08:55:46;4.68;;;4.28;;
45905;SDS011;31619;49.008;12.106;2022-12-29T08:58:19;4.55;;;4.15;;
45905;SDS011;31619;49.008;12.106;2022-12-29T09:00:44;4.13;;;3.65;;
45905;SDS011;31619;49.008;12.106;2022-12-29T09:03:10;4.10;;;3.78;;
45905;SDS011;31619;49.008;12.106;2022-12-29T09:05:35;4.90;;;4.03;;
45905;SDS011;31619;49.008;12.106;2022-12-29T09:08:01;5.53;;;4.75;;
45905;SDS011;31619;49.008;12.106;2022-12-29T09:10:27;4.18;;;3.88;;
45905;SDS011;31619;49.008;12.106;2022-12-29T09:12:52;4.63;;;4.22;;
45905;SDS011;31619;49.008;12.106;2022-12-29T09:15:18;4.68;;;4.28;;
45905;SDS011;31619;49.008;12.106;2022-12-29T09:17:43;4.75;;;4.18;;
45905;SDS011;31619;49.008;12.106;2022-12-29T09:20:09;4.50;;;4.10;;
45905;SDS011;31619;49.008;12.106;2022-12-29T09:22:40;6.60;;;3.97;;
45905;SDS011;31619;49.008;12.106;2022-12-29T09:25:06;5.10;;;4.50;;
45905;SDS011;31619;49.008;12.106;2022-12-29T09:27:34;4.53;;;4.13;;
45905;SDS011;31619;49.008;12.106;2022-12-29T09:29:59;4.88;;;4.38;;
45905;SDS011;31619;49.008;12.106;2022-12-29T09:32:25;5.95;;;4.75;;
45905;SDS011;31619;49.008;12.106;2022-12-29T09:34:51;4.50;;;4.10;;
45905;SDS011;31619;49.008;12.106;2022-12-29T09:37:16;3.40;;;3.15;;
45905;SDS011;31619;49.008;12.106;2022-12-29T09:39:42;4.32;;;3.92;;
45905;SDS011;31619;49.008;12.106;2022-12-29T09:45:12;4.10;;;3.67;;
45905;SDS011;31619;49.008;12.106;2022-12-29T09:47:44;3.40;;;3.10;;
45905;SDS011;31619;49.008;12.106;2022-12-29T09:52:49;3.72;;;3.33;;
45905;SDS011;31619;49.008;12.106;2022-12-29T09:55:41;4.30;;;3.45;;
45905;SDS011;31619;49.008;12.106;2022-12-29T09:58:14;3.03;;;2.83;;
45905;SDS011;31619;49.008;12.106;2022-12-29T10:00:54;3.25;;;3.05;;
45905;SDS011;31619;49.008;12.106;2022-12-29T10:03:59;3.45;;;3.15;;
45905;SDS011;31619;49.008;12.106;2022-12-29T10:06:28;3.50;;;3.20;;
45905;SDS011;31619;49.008;12.106;2022-12-29T10:17:42;3.42;;;3.15;;
45905;SDS011;31619;49.008;12.106;2022-12-29T10:23:14;3.70;;;3.45;;
45905;SDS011;31619;49.008;12.106;2022-12-29T10:25:44;3.80;;;3.50;;
45905;SDS011;31619;49.008;12.106;2022-12-29T10:28:33;4.30;;;3.63;;
45905;SDS011;31619;49.008;12.106;2022-12-29T10:30:59;4.28;;;3.88;;
45905;SDS011;31619;49.008;12.106;2022-12-29T10:33:29;3.50;;;3.30;;
45905;SDS011;31619;49.008;12.106;2022-12-29T10:36:01;4.38;;;4.00;;
45905;SDS011;31619;49.008;12.106;2022-12-29T10:38:53;3.75;;;3.40;;
45905;SDS011;31619;49.008;12.106;2022-12-29T10:41:44;4.63;;;3.58;;
45905;SDS011;31619;49.008;12.106;2022-12-29T10:44:15;3.75;;;3.47;;
45905;SDS011;31619;49.008;12.106;2022-12-29T10:46:43;4.75;;;3.53;;
45905;SDS011;31619;49.008;12.106;2022-12-29T10:49:13;4.07;;;3.63;;
45905;SDS011;31619;49.008;12.106;2022-12-29T10:51:45;6.18;;;4.03;;
45905;SDS011;31619;49.008;12.106;2022-12-29T10:54:23;2.95;;;2.75;;
45905;SDS011;31619;49.008;12.106;2022-12-29T10:56:54;3.25;;;3.03;;
45905;SDS011;31619;49.008;12.106;2022-12-29T10:59:30;4.28;;;3.42;;
45905;SDS011;31619;49.008;12.106;2022-12-29T11:02:00;4.68;;;3.38;;
45905;SDS011;31619;49.008;12.106;2022-12-29T11:07:06;4.00;;;3.70;;
45905;SDS011;31619;49.008;12.106;2022-12-29T11:09:34;4.57;;;3.72;;
45905;SDS011;31619;49.008;12.106;2022-12-29T11:14:47;3.83;;;3.53;;
45905;SDS011;31619;49.008;12.106;2022-12-29T11:17:27;4.32;;;3.85;;
45905;SDS011;31619;49.008;12.106;2022-12-29T11:19:53;4.00;;;3.60;;
45905;SDS011;31619;49.008;12.106;2022-12-29T11:22:26;3.50;;;3.20;;
45905;SDS011;31619;49.008;12.106;2022-12-29T11:24:53;3.70;;;3.28;;
45905;SDS011;31619;49.008;12.106;2022-12-29T11:27:29;3.30;;;3.05;;
45905;SDS011;31619;49.008;12.106;2022-12-29T11:29:55;4.65;;;3.47;;
45905;SDS011;31619;49.008;12.106;2022-12-29T11:32:22;4.40;;;3.95;;
45905;SDS011;31619;49.008;12.106;2022-12-29T11:34:48;3.25;;;3.05;;
45905;SDS011;31619;49.008;12.106;2022-12-29T11:37:16;4.15;;;3.85;;
45905;SDS011;31619;49.008;12.106;2022-12-29T11:43:11;3.58;;;3.17;;
45905;SDS011;31619;49.008;12.106;2022-12-29T11:45:15;3.45;;;3.03;;
45905;SDS011;31619;49.008;12.106;2022-12-29T11:47:47;4.38;;;3.53;;
45905;SDS011;31619;49.008;12.106;2022-12-29T11:50:18;3.20;;;3.00;;
45905;SDS011;31619;49.008;12.106;2022-12-29T11:53:01;3.42;;;3.10;;
45905;SDS011;31619;49.008;12.106;2022-12-29T11:55:30;3.33;;;3.03;;
45905;SDS011;31619;49.008;12.106;2022-12-29T11:57:57;3.25;;;3.03;;
45905;SDS011;31619;49.008;12.106;2022-12-29T12:00:26;3.42;;;2.88;;
45905;SDS011;31619;49.008;12.106;2022-12-29T12:08:07;2.90;;;2.70;;
45905;SDS011;31619;49.008;12.106;2022-12-29T12:10:44;3.60;;;3.30;;
45905;SDS011;31619;49.008;12.106;2022-12-29T12:13:27;3.45;;;3.25;;
45905;SDS011;31619;49.008;12.106;2022-12-29T12:18:53;3.78;;;3.47;;
45905;SDS011;31619;49.008;12.106;2022-12-29T12:21:30;3.85;;;3.10;;
45905;SDS011;31619;49.008;12.106;2022-12-29T12:32:26;3.35;;;3.05;;
45905;SDS011;31619;49.008;12.106;2022-12-29T12:35:10;2.97;;;2.78;;
45905;SDS011;31619;49.008;12.106;2022-12-29T12:38:40;3.53;;;2.95;;
45905;SDS011;31619;49.008;12.106;2022-12-29T12:54:44;3.25;;;3.05;;
45905;SDS011;31619;49.008;12.106;2022-12-29T13:00:15;5.22;;;3.80;;
45905;SDS011;31619;49.008;12.106;2022-12-29T13:02:57;3.65;;;3.35;;
45905;SDS011;31619;49.008;12.106;2022-12-29T13:11:38;3.53;;;3.20;;
45905;SDS011;31619;49.008;12.106;2022-12-29T13:14:23;4.30;;;3.35;;
45905;SDS011;31619;49.008;12.106;2022-12-29T13:31:22;4.30;;;3.90;;
45905;SDS011;31619;49.008;12.106;2022-12-29T13:34:14;4.18;;;3.72;;
45905;SDS011;31619;49.008;12.106;2022-12-29T13:37:04;5.65;;;4.03;;
45905;SDS011;31619;49.008;12.106;2022-12-29T13:39:43;3.80;;;3.38;;
45905;SDS011;31619;49.008;12.106;2022-12-29T13:42:13;5.05;;;3.70;;
45905;SDS011;31619;49.008;12.106;2022-12-29T13:44:44;3.97;;;3.50;;
45905;SDS011;31619;49.008;12.106;2022-12-29T13:49:41;4.18;;;3.78;;
45905;SDS011;31619;49.008;12.106;2022-12-29T13:52:55;4.10;;;3.70;;
45905;SDS011;31619;49.008;12.106;2022-12-29T13:57:48;6.93;;;4.25;;
45905;SDS011;31619;49.008;12.106;2022-12-29T14:00:43;4.70;;;4.30;;
45905;SDS011;31619;49.008;12.106;2022-12-29T14:06:21;5.55;;;4.65;;
45905;SDS011;31619;49.008;12.106;2022-12-29T14:08:53;5.13;;;4.63;;
45905;SDS011;31619;49.008;12.106;2022-12-29T14:11:20;6.10;;;4.20;;
45905;SDS011;31619;49.008;12.106;2022-12-29T14:13:49;6.28;;;4.60;;
45905;SDS011;31619;49.008;12.106;2022-12-29T14:16:27;5.07;;;4.57;;
45905;SDS011;31619;49.008;12.106;2022-12-29T14:18:55;8.00;;;4.53;;
45905;SDS011;31619;49.008;12.106;2022-12-29T14:21:28;6.10;;;4.22;;
45905;SDS011;31619;49.008;12.106;2022-12-29T14:23:56;3.78;;;3.47;;
45905;SDS011;31619;49.008;12.106;2022-12-29T14:26:46;2.25;;;2.05;;
45905;SDS011;31619;49.008;12.106;2022-12-29T14:31:50;1.70;;;1.60;;
45905;SDS011;31619;49.008;12.106;2022-12-29T14:34:25;2.03;;;1.92;;
45905;SDS011;31619;49.008;12.106;2022-12-29T14:50:04;1.90;;;1.80;;
45905;SDS011;31619;49.008;12.106;2022-12-29T14:52:30;3.05;;;1.80;;
45905;SDS011;31619;49.008;12.106;2022-12-29T14:54:57;2.75;;;1.92;;
45905;SDS011;31619;49.008;12.106;2022-12-29T14:57:33;2.35;;;1.70;;
45905;SDS011;31619;49.008;12.106;2022-12-29T15:00:45;2.10;;;1.90;;
45905;SDS011;31619;49.008;12.106;2022-12-29T15:03:05;2.25;;;1.90;;
45905;SDS011;31619;49.008;12.106;2022-12-29T15:08:17;2.08;;;1.98;;
45905;SDS011;31619;49.008;12.106;2022-12-29T15:10:56;3.10;;;2.80;;
45905;SDS011;31619;49.008;12.106;2022-12-29T15:13:24;4.15;;;3.70;;
45905;SDS011;31619;49.008;12.106;2022-12-29T15:15:58;3.30;;;3.10;;
45905;SDS011;31619;49.008;12.106;2022-12-29T15:21:00;4.55;;;3.45;;
45905;SDS011;31619;49.008;12.106;2022-12-29T15:23:27;3.88;;;3.47;;
45905;SDS011;31619;49.008;12.106;2022-12-29T15:25:56;3.45;;;3.15;;
45905;SDS011;31619;49.008;12.106;2022-12-29T15:28:22;3.50;;;3.15;;
45905;SDS011;31619;49.008;12.106;2022-12-29T15:30:55;3.72;;;3.40;;
45905;SDS011;31619;49.008;12.106;2022-12-29T15:33:27;5.30;;;4.10;;
45905;SDS011;31619;49.008;12.106;2022-12-29T15:35:54;3.80;;;3.50;;
45905;SDS011;31619;49.008;12.106;2022-12-29T15:38:25;3.13;;;2.85;;
45905;SDS011;31619;49.008;12.106;2022-12-29T15:40:54;3.92;;;3.55;;
45905;SDS011;31619;49.008;12.106;2022-12-29T15:46:06;2.80;;;2.53;;
45905;SDS011;31619;49.008;12.106;2022-12-29T15:48:31;3.70;;;3.20;;
45905;SDS011;31619;49.008;12.106;2022-12-29T15:50:57;3.72;;;2.17;;
45905;SDS011;31619;49.008;12.106;2022-12-29T15:53:28;2.42;;;2.22;;
45905;SDS011;31619;49.008;12.106;2022-12-29T15:56:00;3.28;;;2.35;;
45905;SDS011;31619;49.008;12.106;2022-12-29T15:58:31;2.40;;;2.20;;
45905;SDS011;31619;49.008;12.106;2022-12-29T16:01:27;1.80;;;1.70;;
45905;SDS011;31619;49.008;12.106;2022-12-29T16:03:58;2.47;;;2.20;;
45905;SDS011;31619;49.008;12.106;2022-12-29T16:09:03;4.55;;;3.10;;
45905;SDS011;31619;49.008;12.106;2022-12-29T16:11:33;2.92;;;2.70;;
45905;SDS011;31619;49.008;12.106;2022-12-29T16:14:01;2.75;;;2.55;;
45905;SDS011;31619;49.008;12.106;2022-12-29T16:16:31;2.88;;;2.67;;
45905;SDS011;31619;49.008;12.106;2022-12-29T16:19:02;4.75;;;3.10;;
45905;SDS011;31619;49.008;12.106;2022-12-29T16:21:43;2.67;;;2.47;;
45905;SDS011;31619;49.008;12.106;2022-12-29T16:24:14;2.88;;;2.67;;
45905;SDS011;31619;49.008;12.106;2022-12-29T16:29:39;3.70;;;2.90;;
45905;SDS011;31619;49.008;12.106;2022-12-29T16:32:22;3.03;;;2.65;;
45905;SDS011;31619;49.008;12.106;2022-12-29T16:34:52;2.95;;;2.60;;
45905;SDS011;31619;49.008;12.106;2022-12-29T16:37:34;3.63;;;3.33;;
45905;SDS011;31619;49.008;12.106;2022-12-29T16:42:53;3.60;;;2.65;;
45905;SDS011;31619;49.008;12.106;2022-12-29T16:47:47;3.50;;;3.08;;
45905;SDS011;31619;49.008;12.106;2022-12-29T16:50:29;3.45;;;3.10;;
45905;SDS011;31619;49.008;12.106;2022-12-29T16:52:56;2.85;;;2.65;;
45905;SDS011;31619;49.008;12.106;2022-12-29T16:55:22;5.25;;;3.47;;
45905;SDS011;31619;49.008;12.106;2022-12-29T16:57:48;3.35;;;2.50;;
45905;SDS011;31619;49.008;12.106;2022-12-29T17:00:19;3.60;;;3.30;;
45905;SDS011;31619;49.008;12.106;2022-12-29T17:02:46;3.20;;;2.95;;
45905;SDS011;31619;49.008;12.106;2022-12-29T17:05:14;3.47;;;3.17;;
45905;SDS011;31619;49.008;12.106;2022-12-29T17:07:42;8.50;;;4.88;;
45905;SDS011;31619;49.008;12.106;2022-12-29T17:10:08;5.80;;;4.15;;
45905;SDS011;31619;49.008;12.106;2022-12-29T17:12:34;4.18;;;3.40;;
45905;SDS011;31619;49.008;12.106;2022-12-29T17:15:05;4.78;;;3.55;;
45905;SDS011;31619;49.008;12.106;2022-12-29T17:17:44;3.50;;;3.20;;
45905;SDS011;31619;49.008;12.106;2022-12-29T17:22:42;3.35;;;3.13;;
45905;SDS011;31619;49.008;12.106;2022-12-29T17:25:11;4.63;;;4.13;;
45905;SDS011;31619;49.008;12.106;2022-12-29T17:30:14;5.28;;;4.15;;